createdAt,value
2023-02-07T00:04:23.158Z,101950.56
2023-02-07T00:09:27.674Z,101934.88
2023-02-07T00:14:33.686Z,101934.75
2023-02-07T00:19:38.860Z,101964.78
2023-02-07T00:24:43.521Z,101959.44
2023-02-07T00:29:48.127Z,101949.00
2023-02-07T00:34:52.743Z,101959.91
2023-02-07T00:39:57.353Z,101944.19
2023-02-07T00:45:01.960Z,101965.44
2023-02-07T00:50:06.875Z,101966.94
2023-02-07T00:55:11.474Z,101967.44
2023-02-07T01:00:17.560Z,101961.94
2023-02-07T01:05:24.106Z,101965.16
2023-02-07T01:10:28.863Z,101957.97
2023-02-07T01:15:37.722Z,101970.66
2023-02-07T01:20:42.396Z,101971.09
2023-02-07T01:25:47.434Z,101971.53
2023-02-07T01:30:52.064Z,101959.84
2023-02-07T01:35:56.691Z,101955.97
2023-02-07T01:41:01.339Z,101957.13
2023-02-07T01:46:06.867Z,101961.84
2023-02-07T01:51:11.423Z,101962.97
2023-02-07T01:56:31.001Z,101955.41
2023-02-07T02:01:37.790Z,101959.13
2023-02-07T02:06:43.593Z,101965.50
2023-02-07T02:12:22.482Z,101961.44
2023-02-07T02:17:34.543Z,101960.91
2023-02-07T02:22:39.054Z,101962.00
2023-02-07T02:28:23.314Z,101959.69
2023-02-07T02:33:48.249Z,101997.00
2023-02-07T02:39:07.918Z,101958.72
2023-02-07T02:44:19.134Z,101941.66
2023-02-07T02:49:24.702Z,101960.28
2023-02-07T02:54:36.729Z,101951.13
2023-02-07T03:00:24.237Z,101948.50
2023-02-07T03:05:59.415Z,101967.72
2023-02-07T03:11:15.074Z,101955.81
2023-02-07T03:16:29.932Z,101928.38
2023-02-07T03:22:03.303Z,101921.78
2023-02-07T03:27:11.277Z,101925.88
2023-02-07T03:32:16.762Z,101881.25
2023-02-07T03:37:32.149Z,101931.91
2023-02-07T03:42:45.204Z,101878.53
2023-02-07T03:47:50.607Z,101885.06
2023-02-07T03:52:55.772Z,101864.69
2023-02-07T03:58:00.931Z,101871.72
2023-02-07T04:03:06.958Z,101872.00
2023-02-07T04:08:13.054Z,101867.94
2023-02-07T04:13:18.156Z,101853.56
2023-02-07T04:18:23.561Z,101851.47
2023-02-07T04:23:28.685Z,101829.38
2023-02-07T04:28:35.438Z,101809.75
2023-02-07T04:33:41.506Z,101785.75
2023-02-07T04:38:46.714Z,101763.81
2023-02-07T04:43:53.476Z,101754.69
2023-02-07T04:48:59.678Z,101736.00
2023-02-07T04:54:05.343Z,101734.53
2023-02-07T04:59:13.222Z,101727.84
2023-02-07T05:04:18.668Z,101719.44
2023-02-07T05:09:24.204Z,101713.13
2023-02-07T05:14:29.045Z,101695.28
2023-02-07T05:19:35.677Z,101688.97
2023-02-07T05:24:41.345Z,101682.56
2023-02-07T05:29:46.667Z,101701.53
2023-02-07T05:34:51.831Z,101666.19
2023-02-07T05:39:57.016Z,101664.84
2023-02-07T05:45:03.241Z,101653.03
2023-02-07T05:50:08.884Z,101637.28
2023-02-07T05:55:15.987Z,101631.88
2023-02-07T06:00:22.364Z,101631.78
2023-02-07T06:05:32.865Z,101630.59
2023-02-07T06:10:37.783Z,101634.63
2023-02-07T06:15:43.184Z,101619.97
2023-02-07T06:20:48.534Z,101619.78
2023-02-07T06:25:55.119Z,101628.41
2023-02-07T06:31:02.831Z,101622.22
2023-02-07T06:36:11.645Z,101615.03
2023-02-07T06:41:17.417Z,101619.34
2023-02-07T06:46:25.651Z,101631.41
2023-02-07T06:51:30.701Z,101620.69
2023-02-07T06:56:38.971Z,101620.59
2023-02-07T07:01:47.272Z,101611.81
2023-02-07T07:06:55.876Z,101625.09
2023-02-07T07:12:01.365Z,101607.16
2023-02-07T07:17:10.690Z,101609.13
2023-02-07T07:22:18.719Z,101609.25
2023-02-07T07:27:27.031Z,101604.09
2023-02-07T07:32:34.434Z,101624.25
2023-02-07T07:37:42.290Z,101610.44
2023-02-07T07:42:50.603Z,101608.28
2023-02-07T07:48:08.920Z,101615.53
2023-02-07T07:53:15.657Z,101645.59
2023-02-07T07:58:22.540Z,101658.34
2023-02-07T08:03:28.594Z,101637.88
2023-02-07T08:08:34.057Z,101642.59
2023-02-07T08:13:40.193Z,101633.66
2023-02-07T08:18:46.779Z,101636.78
2023-02-07T08:23:54.144Z,101648.66
2023-02-07T08:29:01.436Z,101649.00
2023-02-07T08:34:07.857Z,101645.78
2023-02-07T08:39:15.041Z,101649.66
2023-02-07T08:44:20.892Z,101653.53
2023-02-07T08:49:26.135Z,101654.03
2023-02-07T08:54:32.327Z,101668.50
2023-02-07T08:59:37.562Z,101660.44
2023-02-07T09:04:45.257Z,101679.34
2023-02-07T09:09:50.594Z,101672.19
2023-02-07T09:14:55.610Z,101667.53
2023-02-07T09:20:01.005Z,101671.81
2023-02-07T09:25:06.563Z,101660.22
2023-02-07T09:30:12.224Z,101676.41
2023-02-07T09:35:17.367Z,101688.19
2023-02-07T09:40:24.139Z,101699.25
2023-02-07T09:45:36.327Z,101735.44
2023-02-07T09:50:50.667Z,101715.16
2023-02-07T09:56:00.391Z,101736.34
2023-02-07T10:01:19.392Z,101738.25
2023-02-07T10:06:30.143Z,101751.81
2023-02-07T10:11:35.731Z,101754.16
2023-02-07T10:17:08.299Z,101757.50
2023-02-07T10:22:35.268Z,101776.44
2023-02-07T10:28:23.608Z,101756.19
2023-02-07T10:33:38.825Z,101789.69
2023-02-07T10:39:15.345Z,101775.34
2023-02-07T10:44:23.345Z,101801.72
2023-02-07T10:49:37.880Z,101815.88
2023-02-07T10:54:53.700Z,101811.06
2023-02-07T11:00:12.639Z,101851.91
2023-02-07T11:05:20.037Z,101834.88
2023-02-07T11:10:33.450Z,101841.38
2023-02-07T11:15:58.877Z,101851.41
2023-02-07T11:21:03.650Z,101856.25
2023-02-07T11:26:08.369Z,101874.63
2023-02-07T11:31:18.527Z,101869.56
2023-02-07T11:36:31.711Z,101876.09
2023-02-07T11:41:36.609Z,101873.75
2023-02-07T11:46:44.034Z,101868.63
2023-02-07T11:51:53.559Z,101885.13
2023-02-07T11:57:13.352Z,101921.56
2023-02-07T12:02:31.437Z,101896.63
2023-02-07T12:07:46.564Z,101926.25
2023-02-07T12:12:54.149Z,101913.56
2023-02-07T12:18:17.091Z,101914.59
2023-02-07T12:23:45.108Z,101922.69
2023-02-07T12:29:28.460Z,101927.25
2023-02-07T12:34:58.869Z,101937.88
2023-02-07T12:40:15.181Z,101942.50
2023-02-07T12:45:37.976Z,101949.69
2023-02-07T12:50:49.723Z,101964.56
2023-02-07T12:56:44.922Z,101967.78
2023-02-07T13:02:32.916Z,101963.28
2023-02-07T13:07:57.516Z,101986.31
2023-02-07T13:13:25.474Z,101997.88
2023-02-07T13:18:39.123Z,101998.94
2023-02-07T13:23:51.304Z,102006.94
2023-02-07T13:29:09.545Z,102014.78
2023-02-07T13:34:22.760Z,102025.19
2023-02-07T13:39:57.825Z,102025.25
2023-02-07T13:45:13.147Z,102039.19
2023-02-07T13:50:25.470Z,102039.34
2023-02-07T13:55:42.586Z,102056.59
2023-02-07T14:00:51.086Z,102049.53
2023-02-07T14:06:17.520Z,102059.78
2023-02-07T14:11:51.114Z,102073.59
2023-02-07T14:17:02.661Z,102089.16
2023-02-07T14:22:53.407Z,102081.31
2023-02-07T14:28:04.819Z,102085.72
2023-02-07T14:33:22.013Z,102084.22
2023-02-07T14:38:37.285Z,102094.81
2023-02-07T14:44:08.490Z,102086.34
2023-02-07T14:49:21.436Z,102086.28
2023-02-07T14:54:47.602Z,102100.88
2023-02-07T15:00:13.111Z,102101.66
2023-02-07T15:05:20.926Z,102119.75
2023-02-07T15:10:39.907Z,102119.09
2023-02-07T15:15:55.388Z,102132.97
2023-02-07T15:21:03.018Z,102139.19
2023-02-07T15:26:10.210Z,102142.09
2023-02-07T15:31:20.349Z,102135.25
2023-02-07T15:36:43.696Z,102159.28
2023-02-07T15:41:51.063Z,102157.66
2023-02-07T15:46:58.972Z,102161.38
2023-02-07T15:52:03.858Z,102166.66
2023-02-07T15:57:20.648Z,102188.13
2023-02-07T16:02:33.904Z,102187.22
2023-02-07T16:07:41.879Z,102183.72
2023-02-07T16:12:51.232Z,102186.31
2023-02-07T16:17:57.516Z,102195.75
2023-02-07T16:23:06.380Z,102204.44
2023-02-07T16:28:18.565Z,102199.25
2023-02-07T16:33:26.091Z,102202.91
2023-02-07T16:38:31.486Z,102209.84
2023-02-07T16:43:43.494Z,102220.28
2023-02-07T16:48:48.221Z,102229.09
2023-02-07T16:53:53.724Z,102237.91
2023-02-07T16:58:58.979Z,102242.31
2023-02-07T17:04:04.144Z,102247.44
2023-02-07T17:09:20.617Z,102250.16
2023-02-07T17:14:26.108Z,102254.59
2023-02-07T17:19:31.940Z,102262.44
2023-02-07T17:24:37.102Z,102253.88
2023-02-07T17:29:42.699Z,102244.53
2023-02-07T17:34:47.899Z,102288.59
2023-02-07T17:39:52.542Z,102262.91
2023-02-07T17:44:57.157Z,102251.78
2023-02-07T17:50:01.722Z,102275.13
2023-02-07T17:55:06.778Z,102275.97
2023-02-07T18:00:20.137Z,102271.66
2023-02-07T18:05:26.000Z,102280.28
2023-02-07T18:10:31.613Z,102286.22
2023-02-07T18:15:36.188Z,102291.31
2023-02-07T18:20:42.387Z,102286.91
2023-02-07T18:25:52.057Z,102289.53
2023-02-07T18:30:56.785Z,102278.53
2023-02-07T18:36:01.551Z,102289.88
2023-02-07T18:41:11.036Z,102279.69
2023-02-07T18:46:18.913Z,102288.41
2023-02-07T18:51:24.171Z,102289.41
2023-02-07T18:56:29.012Z,102282.63
2023-02-07T19:01:36.267Z,102284.38
2023-02-07T19:06:40.333Z,102284.38
2023-02-07T19:11:45.830Z,102292.94
2023-02-07T19:16:54.059Z,102290.38
2023-02-07T19:21:58.849Z,102293.81
2023-02-07T19:27:02.825Z,102298.13
2023-02-07T19:32:11.402Z,102299.88
2023-02-07T19:37:15.943Z,102306.91
2023-02-07T19:42:20.432Z,102319.84
2023-02-07T19:47:25.022Z,102325.03
2023-02-07T19:52:30.300Z,102320.75
2023-02-07T19:57:36.355Z,102327.63
2023-02-07T20:02:42.029Z,102341.31
2023-02-07T20:07:46.565Z,102344.75
2023-02-07T20:12:51.205Z,102359.31
2023-02-07T20:17:57.860Z,102355.00
2023-02-07T20:23:02.450Z,102374.75
2023-02-07T20:28:09.459Z,102401.41
2023-02-07T20:33:14.070Z,102370.47
2023-02-07T20:38:18.645Z,102373.13
2023-02-07T20:43:24.364Z,102368.91
2023-02-07T20:48:30.621Z,102403.31
2023-02-07T20:53:35.155Z,102389.59
2023-02-07T20:58:40.414Z,102393.09
2023-02-07T21:03:47.054Z,102385.38
2023-02-07T21:09:02.157Z,102400.88
2023-02-07T21:14:10.001Z,102406.88
2023-02-07T21:19:16.413Z,102416.34
2023-02-07T21:24:21.159Z,102405.13
2023-02-07T21:29:25.364Z,102404.25
2023-02-07T21:34:30.009Z,102413.72
2023-02-07T21:39:34.583Z,102422.38
2023-02-07T21:44:39.152Z,102453.34
2023-02-07T21:49:44.750Z,102431.03
2023-02-07T21:54:49.335Z,102441.38
2023-02-07T21:59:54.854Z,102437.91
2023-02-07T22:04:59.626Z,102443.06
2023-02-07T22:10:05.847Z,102474.84
2023-02-07T22:15:11.569Z,102458.56
2023-02-07T22:20:16.928Z,102477.47
2023-02-07T22:25:23.025Z,102475.72
2023-02-07T22:30:27.773Z,102508.38
2023-02-07T22:35:36.297Z,102487.75
2023-02-07T22:40:42.708Z,102501.47
2023-02-07T22:45:47.974Z,102509.25
2023-02-07T22:50:52.605Z,102509.22
2023-02-07T22:56:02.988Z,102514.38
2023-02-07T23:01:08.298Z,102520.41
2023-02-07T23:06:12.792Z,102516.09
2023-02-07T23:11:19.221Z,102524.69
2023-02-07T23:16:27.126Z,102535.84
2023-02-07T23:21:31.858Z,102547.84
2023-02-07T23:26:36.827Z,102548.69
2023-02-07T23:31:41.493Z,102568.44
2023-02-07T23:36:46.144Z,102577.03
2023-02-07T23:41:50.766Z,102583.91
2023-02-07T23:46:56.125Z,102586.47
2023-02-07T23:52:00.781Z,102641.41
2023-02-07T23:57:05.377Z,102607.91
